Time;durP1;ratioP1;P1;durP2;ratioP2;P2;SDS_P1;SDS_P2;PMS_P1;PMS_P2;Temp;Humidity;BMP_temperature;BMP_pressure;BME280_temperature;BME280_humidity;BME280_pressure;Samples;Min_cycle;Max_cycle;Signal;HPM_P1;HPM_P2
2023/06/06 00:01:49;;;;;;;;;;;;;;;;;;5033541;28;20396;-72
2023/06/06 00:04:16;;;;;;;;;;;;;;;;;;5037063;28;20331;-73
2023/06/06 00:06:44;;;;;;;;;;;;;;;;;;5049685;28;20302;-73
2023/06/06 00:09:11;;;;;;;;;;;;;;;;;;5053088;28;20023;-72
2023/06/06 00:11:40;;;;;;;;;;;;;;;;;;5052492;28;20396;-73
2023/06/06 00:14:08;;;;;;;;;;;;;;;;;;5052412;28;20327;-72
2023/06/06 00:16:35;;;;;;;;;;;;;;;;;;5033280;28;19925;-73
2023/06/06 00:19:02;;;;;;;;;;;;;;;;;;5033838;28;20007;-73
2023/06/06 00:21:32;;;;;;;;;;;;;;;;;;5053611;28;20023;-73
2023/06/06 00:23:59;;;;;;;;;;;;;;;;;;5053145;28;20031;-73
2023/06/06 00:26:27;;;;;;;;;;;;;;;;;;5051446;28;19925;-73
2023/06/06 00:28:54;;;;;;;;;;;;;;;;;;5052817;28;19929;-73
2023/06/06 00:31:21;;;;;;;;;;;;;;;;;;5052318;28;19992;-73
2023/06/06 00:33:48;;;;;;;;;;;;;;;;;;5053189;28;20023;-72
2023/06/06 00:36:15;;;;;;;;;;;;;;;;;;5049963;28;20012;-73
2023/06/06 00:38:42;;;;;;;;;;;;;;;;;;5043198;28;20027;-73
2023/06/06 00:41:09;;;;;;;;;;;;;;;;;;5032509;28;20351;-73
2023/06/06 00:43:36;;;;;;;;;;;;;;;;;;5034700;28;19928;-74
2023/06/06 00:46:03;;;;;;;;;;;;;;;;;;5051050;28;19935;-73
2023/06/06 00:48:30;;;;;;;;;;;;;;;;;;5052805;28;19925;-73
2023/06/06 00:50:57;;;;;;;;;;;;;;;;;;5052625;28;19925;-72
2023/06/06 00:53:24;;;;;;;;;;;;;;;;;;5048684;28;20011;-73
2023/06/06 00:55:52;;;;;;;;;;;;;;;;;;5034717;28;20020;-72
2023/06/06 00:58:20;;;;;;;;;;;;;;;;;;5032575;28;19952;-73
2023/06/06 01:00:48;;;;;;;;;;;;;;;;;;5037571;28;19971;-73
2023/06/06 01:03:15;;;;;;;;;;;;;;;;;;5032255;28;20003;-73
2023/06/06 01:05:41;;;;;;;;;;;;;;;;;;5042742;28;20011;-73
2023/06/06 01:08:09;;;;;;;;;;;;;;;;;;5045097;28;19971;-73
2023/06/06 01:10:36;;;;;;;;;;;;;;;;;;5046588;28;19925;-72
2023/06/06 01:13:03;;;;;;;;;;;;;;;;;;5046855;28;20479;-73
2023/06/06 01:15:30;;;;;;;;;;;;;;;;;;5049300;28;20336;-72
2023/06/06 01:17:57;;;;;;;;;;;;;;;;;;5039802;28;20361;-72
2023/06/06 01:20:24;;;;;;;;;;;;;;;;;;5052716;28;20290;-73
2023/06/06 01:22:52;;;;;;;;;;;;;;;;;;5042905;28;20402;-72
2023/06/06 01:25:19;;;;;;;;;;;;;;;;;;5031916;28;19979;-72
2023/06/06 01:27:46;;;;;;;;;;;;;;;;;;5043845;28;20378;-73
2023/06/06 01:30:13;;;;;;;;;;;;;;;;;;5032181;28;20407;-72
2023/06/06 01:32:40;;;;;;;;;;;;;;;;;;5052123;28;19986;-73
2023/06/06 01:35:07;;;;;;;;;;;;;;;;;;5051583;28;20023;-74
2023/06/06 01:37:34;;;;;;;;;;;;;;;;;;5038902;28;19925;-73
2023/06/06 01:40:03;;;;;;;;;;;;;;;;;;5047810;28;19925;-73
2023/06/06 01:42:30;;;;;;;;;;;;;;;;;;5045966;28;19932;-73
2023/06/06 01:44:57;;;;;;;;;;;;;;;;;;5046155;28;19925;-72
2023/06/06 01:47:24;;;;;;;;;;;;;;;;;;5044988;28;19929;-73
2023/06/06 01:49:51;;;;;;;;;;;;;;;;;;5038394;28;19928;-72
2023/06/06 01:52:18;;;;;;;;;;;;;;;;;;5054922;28;19971;-73
2023/06/06 01:54:45;;;;;;;;;;;;;;;;;;5046237;28;20012;-73
2023/06/06 01:57:12;;;;;;;;;;;;;;;;;;5041314;28;20012;-73
2023/06/06 01:59:39;;;;;;;;;;;;;;;;;;5045338;28;19925;-73
2023/06/06 02:02:06;;;;;;;;;;;;;;;;;;5053160;28;20004;-73
2023/06/06 02:04:33;;;;;;;;;;;;;;;;;;5048108;28;20015;-72
2023/06/06 02:07:00;;;;;;;;;;;;;;;;;;5048645;28;20388;-73
2023/06/06 02:09:27;;;;;;;;;;;;;;;;;;5035524;28;20460;-73
2023/06/06 02:11:54;;;;;;;;;;;;;;;;;;5045119;28;19936;-73
2023/06/06 02:14:21;;;;;;;;;;;;;;;;;;5055641;28;19929;-74
2023/06/06 02:16:48;;;;;;;;;;;;;;;;;;5054196;28;19979;-72
2023/06/06 02:19:16;;;;;;;;;;;;;;;;;;5044608;28;19925;-72
2023/06/06 02:21:43;;;;;;;;;;;;;;;;;;5035283;28;20012;-72
2023/06/06 02:24:10;;;;;;;;;;;;;;;;;;5044328;28;20015;-72
2023/06/06 02:26:37;;;;;;;;;;;;;;;;;;5054602;28;19972;-72
2023/06/06 02:29:06;;;;;;;;;;;;;;;;;;5052106;28;19928;-73
2023/06/06 02:31:33;;;;;;;;;;;;;;;;;;5054385;28;19925;-73
2023/06/06 02:34:00;;;;;;;;;;;;;;;;;;5045642;28;19963;-73
2023/06/06 02:36:29;;;;;;;;;;;;;;;;;;5039809;28;19948;-73
2023/06/06 02:38:56;;;;;;;;;;;;;;;;;;5034894;28;19995;-73
2023/06/06 02:41:23;;;;;;;;;;;;;;;;;;5050192;28;19932;-73
2023/06/06 02:43:50;;;;;;;;;;;;;;;;;;5051558;28;20019;-73
2023/06/06 02:46:17;;;;;;;;;;;;;;;;;;5037031;28;19929;-74
2023/06/06 02:48:47;;;;;;;;;;;;;;;;;;5053445;28;19940;-74
2023/06/06 02:51:14;;;;;;;;;;;;;;;;;;5054586;28;19929;-74
2023/06/06 02:53:42;;;;;;;;;;;;;;;;;;5040765;28;19956;-73
2023/06/06 02:56:08;;;;;;;;;;;;;;;;;;5034832;28;19932;-74
2023/06/06 02:58:35;;;;;;;;;;;;;;;;;;5034362;28;19931;-74
2023/06/06 03:01:03;;;;;;;;;;;;;;;;;;5034575;28;19931;-73
2023/06/06 03:03:30;;;;;;;;;;;;;;;;;;5036463;28;19936;-73
2023/06/06 03:05:57;;;;;;;;;;;;;;;;;;5038636;28;19932;-73
2023/06/06 03:08:24;;;;;;;;;;;;;;;;;;5035828;28;19932;-73
2023/06/06 03:10:51;;;;;;;;;;;;;;;;;;5049634;28;19955;-74
2023/06/06 03:13:18;;;;;;;;;;;;;;;;;;5054210;28;19925;-73
2023/06/06 03:15:45;;;;;;;;;;;;;;;;;;5053578;28;19932;-73
2023/06/06 03:18:16;;;;;;;;;;;;;;;;;;5053387;28;20388;-73
2023/06/06 03:20:44;;;;;;;;;;;;;;;;;;5053923;28;19925;-73
2023/06/06 03:23:11;;;;;;;;;;;;;;;;;;5054227;28;19932;-73
2023/06/06 03:25:39;;;;;;;;;;;;;;;;;;5053371;28;19971;-73
2023/06/06 03:28:06;;;;;;;;;;;;;;;;;;5050573;28;19925;-72
2023/06/06 03:30:33;;;;;;;;;;;;;;;;;;5039075;28;20015;-72
2023/06/06 03:33:00;;;;;;;;;;;;;;;;;;5054001;28;19974;-73
2023/06/06 03:35:27;;;;;;;;;;;;;;;;;;5054230;28;19925;-73
2023/06/06 03:37:57;;;;;;;;;;;;;;;;;;5053566;28;19924;-72
2023/06/06 03:40:24;;;;;;;;;;;;;;;;;;5052773;28;19929;-73
2023/06/06 03:42:51;;;;;;;;;;;;;;;;;;5053973;28;19925;-73
2023/06/06 03:45:18;;;;;;;;;;;;;;;;;;5051384;28;20023;-73
2023/06/06 03:47:45;;;;;;;;;;;;;;;;;;5043369;28;19929;-73
2023/06/06 03:50:12;;;;;;;;;;;;;;;;;;5033475;28;20384;-73
2023/06/06 03:52:38;;;;;;;;;;;;;;;;;;5041892;28;19956;-73
2023/06/06 03:55:05;;;;;;;;;;;;;;;;;;5053453;28;19975;-73
2023/06/06 03:57:32;;;;;;;;;;;;;;;;;;5046066;28;20088;-73
2023/06/06 04:00:00;;;;;;;;;;;;;;;;;;5033772;28;19999;-72
2023/06/06 04:02:27;;;;;;;;;;;;;;;;;;5035146;28;19925;-73
2023/06/06 04:04:54;;;;;;;;;;;;;;;;;;5034827;28;19944;-73
2023/06/06 04:07:21;;;;;;;;;;;;;;;;;;5043248;28;20011;-73
2023/06/06 04:09:48;;;;;;;;;;;;;;;;;;5036736;28;20015;-73
2023/06/06 04:12:15;;;;;;;;;;;;;;;;;;5043531;28;20016;-73
2023/06/06 04:14:42;;;;;;;;;;;;;;;;;;5053009;28;19933;-72
2023/06/06 04:17:09;;;;;;;;;;;;;;;;;;5049956;28;19925;-73
2023/06/06 04:19:37;;;;;;;;;;;;;;;;;;5052731;28;19972;-73
2023/06/06 04:22:05;;;;;;;;;;;;;;;;;;5052692;28;19925;-73
2023/06/06 04:24:32;;;;;;;;;;;;;;;;;;5042836;28;19983;-73
2023/06/06 04:27:03;;;;;;;;;;;;;;;;;;5032810;28;19932;-73
2023/06/06 04:29:32;;;;;;;;;;;;;;;;;;5033292;28;19931;-73
2023/06/06 04:31:59;;;;;;;;;;;;;;;;;;5034325;28;20003;-73
2023/06/06 04:34:30;;;;;;;;;;;;;;;;;;5039504;28;20367;-73
2023/06/06 04:37:01;;;;;;;;;;;;;;;;;;5052106;28;20402;-73
2023/06/06 04:39:28;;;;;;;;;;;;;;;;;;5051661;28;19932;-73
2023/06/06 04:41:57;;;;;;;;;;;;;;;;;;5046829;28;19955;-75
2023/06/06 04:44:24;;;;;;;;;;;;;;;;;;5032726;28;19929;-74
2023/06/06 04:46:52;;;;;;;;;;;;;;;;;;5038837;28;20020;-74
2023/06/06 04:49:19;;;;;;;;;;;;;;;;;;5052149;28;19925;-73
2023/06/06 04:51:46;;;;;;;;;;;;;;;;;;5045709;28;20378;-74
2023/06/06 04:54:13;;;;;;;;;;;;;;;;;;5042765;28;20008;-73
2023/06/06 04:56:40;;;;;;;;;;;;;;;;;;5034132;28;19925;-73
2023/06/06 04:59:07;;;;;;;;;;;;;;;;;;5050949;28;19979;-74
2023/06/06 05:01:34;;;;;;;;;;;;;;;;;;5051981;28;19931;-74
2023/06/06 05:04:01;;;;;;;;;;;;;;;;;;5048954;28;19925;-74
2023/06/06 05:06:30;;;;;;;;;;;;;;;;;;5040960;28;20015;-74
2023/06/06 05:08:59;;;;;;;;;;;;;;;;;;5042926;28;19932;-74
2023/06/06 05:11:26;;;;;;;;;;;;;;;;;;5037910;28;19947;-74
2023/06/06 05:13:53;;;;;;;;;;;;;;;;;;5048703;28;20034;-74
2023/06/06 05:16:21;;;;;;;;;;;;;;;;;;5038948;28;20000;-74
2023/06/06 05:18:48;;;;;;;;;;;;;;;;;;5042168;28;19932;-74
2023/06/06 05:21:15;;;;;;;;;;;;;;;;;;5049942;28;20016;-74
2023/06/06 05:23:42;;;;;;;;;;;;;;;;;;5046302;28;19929;-75
2023/06/06 05:26:09;;;;;;;;;;;;;;;;;;5050477;28;20346;-75
2023/06/06 05:28:36;;;;;;;;;;;;;;;;;;5044366;28;19925;-74
2023/06/06 05:31:03;;;;;;;;;;;;;;;;;;5049460;28;20014;-74
2023/06/06 05:33:30;;;;;;;;;;;;;;;;;;5037849;28;20452;-74
2023/06/06 05:35:57;;;;;;;;;;;;;;;;;;5038096;28;19925;-74
2023/06/06 05:38:25;;;;;;;;;;;;;;;;;;5038864;28;19944;-73
2023/06/06 05:40:52;;;;;;;;;;;;;;;;;;5044467;28;20390;-74
2023/06/06 05:43:19;;;;;;;;;;;;;;;;;;5049132;28;19925;-74
2023/06/06 05:45:46;;;;;;;;;;;;;;;;;;5052259;28;19979;-75
2023/06/06 05:48:13;;;;;;;;;;;;;;;;;;5039401;28;19924;-73
2023/06/06 05:50:40;;;;;;;;;;;;;;;;;;5044983;28;20012;-75
2023/06/06 05:53:07;;;;;;;;;;;;;;;;;;5049423;28;19925;-78
2023/06/06 05:55:34;;;;;;;;;;;;;;;;;;5057131;28;19924;-80
2023/06/06 05:58:01;;;;;;;;;;;;;;;;;;5046388;28;20340;-76
2023/06/06 06:00:28;;;;;;;;;;;;;;;;;;5050435;28;19936;-75
2023/06/06 06:02:57;;;;;;;;;;;;;;;;;;5055858;28;20443;-76
2023/06/06 06:05:29;;;;;;;;;;;;;;;;;;5061656;28;19924;-78
2023/06/06 06:07:59;;;;;;;;;;;;;;;;;;5051972;28;19932;-78
2023/06/06 06:10:26;;;;;;;;;;;;;;;;;;5051409;28;19933;-76
2023/06/06 06:12:53;;;;;;;;;;;;;;;;;;5046076;28;19960;-75
2023/06/06 06:15:20;;;;;;;;;;;;;;;;;;5046609;28;19924;-76
2023/06/06 06:17:47;;;;;;;;;;;;;;;;;;5052372;28;20003;-76
2023/06/06 06:20:14;;;;;;;;;;;;;;;;;;5041394;28;20004;-76
2023/06/06 06:22:41;;;;;;;;;;;;;;;;;;5041291;28;19929;-77
2023/06/06 06:25:12;;;;;;;;;;;;;;;;;;5041143;28;20277;-76
2023/06/06 06:27:39;;;;;;;;;;;;;;;;;;5037336;28;19987;-76
2023/06/06 06:30:06;;;;;;;;;;;;;;;;;;5037138;28;19925;-76
2023/06/06 06:32:33;;;;;;;;;;;;;;;;;;5041758;28;19931;-76
2023/06/06 06:35:01;;;;;;;;;;;;;;;;;;5039090;28;20647;-78
2023/06/06 06:37:29;;;;;;;;;;;;;;;;;;5043901;28;20013;-76
2023/06/06 06:39:56;;;;;;;;;;;;;;;;;;5042963;28;19970;-77
2023/06/06 06:42:23;;;;;;;;;;;;;;;;;;5048140;28;20031;-77
2023/06/06 06:44:50;;;;;;;;;;;;;;;;;;5041738;28;19925;-76
2023/06/06 06:47:17;;;;;;;;;;;;;;;;;;5049246;28;20020;-78
2023/06/06 06:49:44;;;;;;;;;;;;;;;;;;5047430;28;19931;-77
2023/06/06 06:52:12;;;;;;;;;;;;;;;;;;5048711;28;20005;-77
2023/06/06 06:54:39;;;;;;;;;;;;;;;;;;5042185;28;19932;-77
2023/06/06 06:57:06;;;;;;;;;;;;;;;;;;5044316;28;20015;-77
2023/06/06 06:59:33;;;;;;;;;;;;;;;;;;5058896;28;20036;-77
2023/06/06 07:02:02;;;;;;;;;;;;;;;;;;5046909;28;19925;-77
2023/06/06 07:04:30;;;;;;;;;;;;;;;;;;5046542;28;20395;-77
2023/06/06 07:06:56;;;;;;;;;;;;;;;;;;5045808;28;20295;-77
2023/06/06 07:09:23;;;;;;;;;;;;;;;;;;5047909;28;20015;-77
2023/06/06 07:11:50;;;;;;;;;;;;;;;;;;5053661;28;20016;-77
2023/06/06 07:14:17;;;;;;;;;;;;;;;;;;5042637;28;19968;-77
2023/06/06 07:16:44;;;;;;;;;;;;;;;;;;5044751;28;19971;-77
2023/06/06 07:19:11;;;;;;;;;;;;;;;;;;5047970;28;19925;-77
2023/06/06 07:21:38;;;;;;;;;;;;;;;;;;5035555;28;19932;-79
2023/06/06 07:24:05;;;;;;;;;;;;;;;;;;5044448;28;20371;-80
2023/06/06 07:26:33;;;;;;;;;;;;;;;;;;5036466;28;19937;-78
2023/06/06 07:29:00;;;;;;;;;;;;;;;;;;5034762;28;19972;-80
2023/06/06 07:31:27;;;;;;;;;;;;;;;;;;5045069;28;19978;-79
2023/06/06 07:33:55;;;;;;;;;;;;;;;;;;5043507;28;19929;-78
2023/06/06 07:36:22;;;;;;;;;;;;;;;;;;5051347;28;19925;-78
2023/06/06 07:38:49;;;;;;;;;;;;;;;;;;5038822;28;20016;-79
2023/06/06 07:41:16;;;;;;;;;;;;;;;;;;5050427;28;20024;-79
2023/06/06 07:43:43;;;;;;;;;;;;;;;;;;5050283;28;20008;-80
2023/06/06 07:46:10;;;;;;;;;;;;;;;;;;5048260;28;20019;-80
2023/06/06 07:48:37;;;;;;;;;;;;;;;;;;5039627;28;19925;-79
2023/06/06 07:51:04;;;;;;;;;;;;;;;;;;5041841;28;19933;-79
2023/06/06 07:53:31;;;;;;;;;;;;;;;;;;5051609;28;19924;-79
2023/06/06 07:55:58;;;;;;;;;;;;;;;;;;5040335;28;20011;-79
2023/06/06 07:58:27;;;;;;;;;;;;;;;;;;5037390;28;20008;-78
2023/06/06 08:00:58;;;;;;;;;;;;;;;;;;5042564;28;19940;-79
2023/06/06 08:03:25;;;;;;;;;;;;;;;;;;5046977;28;19925;-79
2023/06/06 08:05:52;;;;;;;;;;;;;;;;;;5040423;28;19924;-80
2023/06/06 08:08:20;;;;;;;;;;;;;;;;;;5033516;28;19925;-79
2023/06/06 08:10:47;;;;;;;;;;;;;;;;;;5043291;28;19925;-78
2023/06/06 08:13:14;;;;;;;;;;;;;;;;;;5036161;28;20021;-80
2023/06/06 08:15:41;;;;;;;;;;;;;;;;;;5041680;28;20403;-79
2023/06/06 08:18:08;;;;;;;;;;;;;;;;;;5039053;28;20367;-75
2023/06/06 08:20:35;;;;;;;;;;;;;;;;;;5045036;28;19995;-75
2023/06/06 08:23:02;;;;;;;;;;;;;;;;;;5046272;28;19924;-74
2023/06/06 08:25:29;;;;;;;;;;;;;;;;;;5040233;28;19925;-74
2023/06/06 08:27:56;;;;;;;;;;;;;;;;;;5042320;28;19939;-75
2023/06/06 08:30:23;;;;;;;;;;;;;;;;;;5045904;28;19933;-74
2023/06/06 08:32:50;;;;;;;;;;;;;;;;;;5039945;28;19964;-75
2023/06/06 08:35:19;;;;;;;;;;;;;;;;;;5044257;28;19936;-75
2023/06/06 08:37:46;;;;;;;;;;;;;;;;;;5046144;28;19979;-74
2023/06/06 08:40:13;;;;;;;;;;;;;;;;;;5040693;28;20024;-75
2023/06/06 08:42:40;;;;;;;;;;;;;;;;;;5042648;28;20312;-76
2023/06/06 08:45:07;;;;;;;;;;;;;;;;;;5040765;28;20442;-75
2023/06/06 08:47:34;;;;;;;;;;;;;;;;;;5039039;28;19979;-76
2023/06/06 08:50:02;;;;;;;;;;;;;;;;;;5034452;28;20008;-75
2023/06/06 08:52:29;;;;;;;;;;;;;;;;;;5042089;28;20296;-75
2023/06/06 08:54:56;;;;;;;;;;;;;;;;;;5040732;28;19933;-75
2023/06/06 08:57:23;;;;;;;;;;;;;;;;;;5043144;28;20059;-75
2023/06/06 08:59:50;;;;;;;;;;;;;;;;;;5050327;28;19956;-75
2023/06/06 09:02:17;;;;;;;;;;;;;;;;;;5045697;28;20020;-76
2023/06/06 09:04:44;;;;;;;;;;;;;;;;;;5033626;28;20308;-76
2023/06/06 09:07:12;;;;;;;;;;;;;;;;;;5034514;28;19928;-75
2023/06/06 09:09:40;;;;;;;;;;;;;;;;;;5050340;28;19925;-76
2023/06/06 09:12:07;;;;;;;;;;;;;;;;;;5047932;28;19940;-75
2023/06/06 09:14:34;;;;;;;;;;;;;;;;;;5048871;28;19956;-75
2023/06/06 09:17:01;;;;;;;;;;;;;;;;;;5038410;28;19933;-75
2023/06/06 09:19:28;;;;;;;;;;;;;;;;;;5044383;28;19931;-75
2023/06/06 09:21:55;;;;;;;;;;;;;;;;;;5039696;28;20008;-75
2023/06/06 09:24:22;;;;;;;;;;;;;;;;;;5031632;28;20020;-76
2023/06/06 09:26:49;;;;;;;;;;;;;;;;;;5041658;28;19972;-74
2023/06/06 09:29:16;;;;;;;;;;;;;;;;;;5038357;28;20027;-75
2023/06/06 09:31:43;;;;;;;;;;;;;;;;;;5044717;28;20013;-74
2023/06/06 09:34:10;;;;;;;;;;;;;;;;;;5044870;28;20379;-74
2023/06/06 09:36:37;;;;;;;;;;;;;;;;;;5044406;28;19929;-74
2023/06/06 09:39:04;;;;;;;;;;;;;;;;;;5045430;28;19925;-74
2023/06/06 09:41:31;;;;;;;;;;;;;;;;;;5039427;28;19924;-75
2023/06/06 09:43:58;;;;;;;;;;;;;;;;;;5047194;28;20004;-75
2023/06/06 09:46:25;;;;;;;;;;;;;;;;;;5049287;28;19972;-74
2023/06/06 09:48:52;;;;;;;;;;;;;;;;;;5041437;28;20741;-76
2023/06/06 09:51:19;;;;;;;;;;;;;;;;;;5047472;28;20388;-74
2023/06/06 09:53:50;;;;;;;;;;;;;;;;;;5041253;28;20375;-75
2023/06/06 09:56:17;;;;;;;;;;;;;;;;;;5034570;28;19933;-77
2023/06/06 09:58:44;;;;;;;;;;;;;;;;;;5042671;28;19933;-76
2023/06/06 10:01:11;;;;;;;;;;;;;;;;;;5046257;28;20004;-77
2023/06/06 10:03:38;;;;;;;;;;;;;;;;;;5043864;28;19924;-77
2023/06/06 10:06:07;;;;;;;;;;;;;;;;;;5048114;28;19970;-76
2023/06/06 10:08:34;;;;;;;;;;;;;;;;;;5051789;28;20383;-75
2023/06/06 10:11:01;;;;;;;;;;;;;;;;;;5049720;28;19925;-75
2023/06/06 10:13:28;;;;;;;;;;;;;;;;;;5038910;28;19972;-75
2023/06/06 10:15:55;;;;;;;;;;;;;;;;;;5039111;28;19925;-75
2023/06/06 10:18:22;;;;;;;;;;;;;;;;;;5040809;28;20339;-74
2023/06/06 10:20:49;;;;;;;;;;;;;;;;;;5040442;28;19929;-75
2023/06/06 10:23:16;;;;;;;;;;;;;;;;;;5046931;28;19964;-79
2023/06/06 10:25:43;;;;;;;;;;;;;;;;;;5043231;28;19925;-79
2023/06/06 10:28:10;;;;;;;;;;;;;;;;;;5050200;28;19925;-80
2023/06/06 10:30:37;;;;;;;;;;;;;;;;;;5044955;28;20041;-85
2023/06/06 10:33:04;;;;;;;;;;;;;;;;;;5048980;28;19991;-84
2023/06/06 10:35:31;;;;;;;;;;;;;;;;;;5053487;28;19947;-84
2023/06/06 10:37:59;;;;;;;;;;;;;;;;;;5045421;28;19925;-84
2023/06/06 10:40:26;;;;;;;;;;;;;;;;;;5049041;28;19990;-84
2023/06/06 10:42:53;;;;;;;;;;;;;;;;;;5048119;28;19924;-84
2023/06/06 10:45:20;;;;;;;;;;;;;;;;;;5047355;28;19959;-85
2023/06/06 10:47:47;;;;;;;;;;;;;;;;;;5041455;28;20350;-84
2023/06/06 10:50:14;;;;;;;;;;;;;;;;;;5043760;28;20012;-82
2023/06/06 10:52:41;;;;;;;;;;;;;;;;;;5039231;28;19975;-84
2023/06/06 10:55:08;;;;;;;;;;;;;;;;;;5048557;28;20012;-81
2023/06/06 10:57:35;;;;;;;;;;;;;;;;;;5043671;28;19925;-76
2023/06/06 11:00:02;;;;;;;;;;;;;;;;;;5043003;28;19931;-76
2023/06/06 11:02:29;;;;;;;;;;;;;;;;;;5035452;28;19987;-76
2023/06/06 11:04:56;;;;;;;;;;;;;;;;;;5037150;28;19940;-76
2023/06/06 11:07:23;;;;;;;;;;;;;;;;;;5041602;28;19931;-77
2023/06/06 11:09:50;;;;;;;;;;;;;;;;;;5036665;28;20432;-76
2023/06/06 11:12:17;;;;;;;;;;;;;;;;;;5039107;28;19929;-78
2023/06/06 11:14:44;;;;;;;;;;;;;;;;;;5037807;28;19933;-78
2023/06/06 11:17:11;;;;;;;;;;;;;;;;;;5039620;28;19940;-77
2023/06/06 11:19:38;;;;;;;;;;;;;;;;;;5038618;28;19929;-75
2023/06/06 11:22:05;;;;;;;;;;;;;;;;;;5035129;28;19925;-79
2023/06/06 11:24:32;;;;;;;;;;;;;;;;;;5045037;28;19972;-76
2023/06/06 11:26:59;;;;;;;;;;;;;;;;;;5047595;28;19931;-78
2023/06/06 11:29:26;;;;;;;;;;;;;;;;;;5042546;28;19925;-78
2023/06/06 11:31:53;;;;;;;;;;;;;;;;;;5036079;28;19933;-77
2023/06/06 11:34:20;;;;;;;;;;;;;;;;;;5034536;28;20011;-79
2023/06/06 11:36:47;;;;;;;;;;;;;;;;;;5039616;28;20039;-79
2023/06/06 11:39:14;;;;;;;;;;;;;;;;;;5047766;28;20394;-79
2023/06/06 11:41:42;;;;;;;;;;;;;;;;;;5043007;28;19925;-79
2023/06/06 11:44:09;;;;;;;;;;;;;;;;;;5038877;28;20356;-76
2023/06/06 11:46:36;;;;;;;;;;;;;;;;;;5045161;28;20003;-79
2023/06/06 11:49:03;;;;;;;;;;;;;;;;;;5053549;28;20024;-80
2023/06/06 11:51:30;;;;;;;;;;;;;;;;;;5037983;28;19924;-79
2023/06/06 11:53:57;;;;;;;;;;;;;;;;;;5048267;28;19925;-81
2023/06/06 11:56:26;;;;;;;;;;;;;;;;;;5040338;28;19932;-75
2023/06/06 11:58:53;;;;;;;;;;;;;;;;;;5042452;28;19925;-80
2023/06/06 12:01:20;;;;;;;;;;;;;;;;;;5048186;28;20007;-78
2023/06/06 12:03:47;;;;;;;;;;;;;;;;;;5050266;28;20393;-81
2023/06/06 12:06:14;;;;;;;;;;;;;;;;;;5046280;28;19933;-81
2023/06/06 12:08:41;;;;;;;;;;;;;;;;;;5048017;28;19997;-80
2023/06/06 12:11:08;;;;;;;;;;;;;;;;;;5039726;28;20001;-80
2023/06/06 12:13:35;;;;;;;;;;;;;;;;;;5048424;28;19925;-78
2023/06/06 12:16:02;;;;;;;;;;;;;;;;;;5044125;28;20004;-77
2023/06/06 12:18:29;;;;;;;;;;;;;;;;;;5037514;28;19928;-77
2023/06/06 12:20:56;;;;;;;;;;;;;;;;;;5039914;28;20008;-77
2023/06/06 12:23:23;;;;;;;;;;;;;;;;;;5047545;28;19983;-78
2023/06/06 12:25:50;;;;;;;;;;;;;;;;;;5052257;28;19931;-82
2023/06/06 12:28:17;;;;;;;;;;;;;;;;;;5046947;28;19925;-83
2023/06/06 12:30:44;;;;;;;;;;;;;;;;;;5045962;28;20012;-81
2023/06/06 12:33:11;;;;;;;;;;;;;;;;;;5049133;28;19947;-82
2023/06/06 12:35:38;;;;;;;;;;;;;;;;;;5042226;28;19931;-83
2023/06/06 12:38:05;;;;;;;;;;;;;;;;;;5052493;28;20015;-80
2023/06/06 12:40:34;;;;;;;;;;;;;;;;;;5043313;28;19925;-78
2023/06/06 12:43:03;;;;;;;;;;;;;;;;;;5049517;28;19924;-76
2023/06/06 12:45:30;;;;;;;;;;;;;;;;;;5046015;28;19937;-76
2023/06/06 12:47:57;;;;;;;;;;;;;;;;;;5042327;28;19933;-76
2023/06/06 12:50:24;;;;;;;;;;;;;;;;;;5062266;28;20031;-77
2023/06/06 12:52:51;;;;;;;;;;;;;;;;;;5048235;28;19925;-76
2023/06/06 12:55:18;;;;;;;;;;;;;;;;;;5036191;28;19933;-75
2023/06/06 12:57:45;;;;;;;;;;;;;;;;;;5042262;28;19933;-77
2023/06/06 13:00:13;;;;;;;;;;;;;;;;;;5040801;28;19929;-77
2023/06/06 13:02:41;;;;;;;;;;;;;;;;;;5038421;28;19925;-77
2023/06/06 13:05:08;;;;;;;;;;;;;;;;;;5047431;28;19940;-79
2023/06/06 13:07:36;;;;;;;;;;;;;;;;;;5040341;28;20388;-77
2023/06/06 13:10:05;;;;;;;;;;;;;;;;;;5051330;28;19925;-78
2023/06/06 13:12:32;;;;;;;;;;;;;;;;;;5044457;28;20066;-77
2023/06/06 13:14:59;;;;;;;;;;;;;;;;;;5048952;28;19925;-77
2023/06/06 13:17:26;;;;;;;;;;;;;;;;;;5047200;28;19933;-78
2023/06/06 13:19:53;;;;;;;;;;;;;;;;;;5043796;28;19968;-77
2023/06/06 13:22:20;;;;;;;;;;;;;;;;;;5039798;28;19929;-78
2023/06/06 13:24:47;;;;;;;;;;;;;;;;;;5046218;28;19932;-78
2023/06/06 13:27:14;;;;;;;;;;;;;;;;;;5044599;28;19975;-77
2023/06/06 13:29:41;;;;;;;;;;;;;;;;;;5050112;28;19931;-77
2023/06/06 13:32:08;;;;;;;;;;;;;;;;;;5044669;28;19931;-78
2023/06/06 13:34:35;;;;;;;;;;;;;;;;;;5040483;28;19968;-77
2023/06/06 13:37:05;;;;;;;;;;;;;;;;;;5051770;28;19975;-77
2023/06/06 13:39:32;;;;;;;;;;;;;;;;;;5040103;28;19979;-76
2023/06/06 13:41:59;;;;;;;;;;;;;;;;;;5037546;28;19972;-78
2023/06/06 13:44:26;;;;;;;;;;;;;;;;;;5048200;28;20016;-76
2023/06/06 13:46:53;;;;;;;;;;;;;;;;;;5046688;28;19924;-81
2023/06/06 13:49:20;;;;;;;;;;;;;;;;;;5047473;28;19929;-80
2023/06/06 13:51:47;;;;;;;;;;;;;;;;;;5045976;28;19935;-79
2023/06/06 13:54:14;;;;;;;;;;;;;;;;;;5038433;28;19933;-78
2023/06/06 13:56:47;;;;;;;;;;;;;;;;;;5042051;28;20406;-77
2023/06/06 13:59:14;;;;;;;;;;;;;;;;;;5045700;28;20324;-78
2023/06/06 14:01:46;;;;;;;;;;;;;;;;;;5041401;28;19936;-77
2023/06/06 14:04:13;;;;;;;;;;;;;;;;;;5053630;28;19991;-80
2023/06/06 14:06:40;;;;;;;;;;;;;;;;;;5054502;28;19979;-78
2023/06/06 14:09:08;;;;;;;;;;;;;;;;;;5050333;28;20011;-78
2023/06/06 14:11:35;;;;;;;;;;;;;;;;;;5054492;28;19992;-79
2023/06/06 14:14:02;;;;;;;;;;;;;;;;;;5059381;28;19963;-80
2023/06/06 14:16:29;;;;;;;;;;;;;;;;;;5054108;28;19964;-79
2023/06/06 14:18:57;;;;;;;;;;;;;;;;;;5042383;28;20021;-83
2023/06/06 14:21:46;;;;;;;;;;;;;;;;;;5046250;28;19925;-84
2023/06/06 14:24:13;;;;;;;;;;;;;;;;;;5054620;28;19924;-83
2023/06/06 14:26:40;;;;;;;;;;;;;;;;;;5050732;28;19929;-77
2023/06/06 14:29:07;;;;;;;;;;;;;;;;;;5037742;28;20012;-85
2023/06/06 14:31:35;;;;;;;;;;;;;;;;;;5047068;28;19936;-86
2023/06/06 14:34:02;;;;;;;;;;;;;;;;;;5051969;28;19929;-79
2023/06/06 14:36:29;;;;;;;;;;;;;;;;;;5055504;28;19979;-82
2023/06/06 14:38:56;;;;;;;;;;;;;;;;;;5055438;28;19925;-81
2023/06/06 14:41:23;;;;;;;;;;;;;;;;;;5045316;28;20372;-82
2023/06/06 14:43:55;;;;;;;;;;;;;;;;;;5040490;28;19929;-80
2023/06/06 14:46:22;;;;;;;;;;;;;;;;;;5049578;28;19929;-77
2023/06/06 14:48:49;;;;;;;;;;;;;;;;;;5037909;28;19933;-78
2023/06/06 14:51:17;;;;;;;;;;;;;;;;;;5050178;28;19925;-77
2023/06/06 14:53:44;;;;;;;;;;;;;;;;;;5051249;28;20008;-77
2023/06/06 14:56:11;;;;;;;;;;;;;;;;;;5048486;28;19943;-79
2023/06/06 14:58:42;;;;;;;;;;;;;;;;;;5049473;28;19925;-80
2023/06/06 15:01:09;;;;;;;;;;;;;;;;;;5039509;28;20026;-77
2023/06/06 15:03:36;;;;;;;;;;;;;;;;;;5045616;28;20021;-77
2023/06/06 15:06:03;;;;;;;;;;;;;;;;;;5040782;28;19931;-79
2023/06/06 15:08:30;;;;;;;;;;;;;;;;;;5048823;28;19990;-82
2023/06/06 15:10:57;;;;;;;;;;;;;;;;;;5049352;28;20012;-79
2023/06/06 15:13:24;;;;;;;;;;;;;;;;;;5047492;28;20462;-80
2023/06/06 15:15:51;;;;;;;;;;;;;;;;;;5044670;28;19980;-81
2023/06/06 15:18:18;;;;;;;;;;;;;;;;;;5039276;28;19979;-81
2023/06/06 15:20:45;;;;;;;;;;;;;;;;;;5051325;28;19925;-91
2023/06/06 15:23:14;;;;;;;;;;;;;;;;;;5048375;28;19979;-83
2023/06/06 15:25:41;;;;;;;;;;;;;;;;;;5053462;28;19925;-79
2023/06/06 15:28:08;;;;;;;;;;;;;;;;;;5052484;28;20359;-80
2023/06/06 15:30:36;;;;;;;;;;;;;;;;;;5056025;28;19924;-83
2023/06/06 15:33:03;;;;;;;;;;;;;;;;;;5053289;28;20557;-80
2023/06/06 15:35:30;;;;;;;;;;;;;;;;;;5049707;28;20032;-81
2023/06/06 15:37:57;;;;;;;;;;;;;;;;;;5048182;28;19955;-82
2023/06/06 15:40:24;;;;;;;;;;;;;;;;;;5050932;28;20375;-78
2023/06/06 15:42:51;;;;;;;;;;;;;;;;;;5062405;28;19925;-79
2023/06/06 15:45:18;;;;;;;;;;;;;;;;;;5053971;28;20015;-79
2023/06/06 15:47:45;;;;;;;;;;;;;;;;;;5041282;28;19928;-83
2023/06/06 15:50:12;;;;;;;;;;;;;;;;;;5046529;28;19925;-75
2023/06/06 15:52:39;;;;;;;;;;;;;;;;;;5051434;28;19953;-79
2023/06/06 15:55:06;;;;;;;;;;;;;;;;;;5045272;28;20404;-80
2023/06/06 15:57:33;;;;;;;;;;;;;;;;;;5049700;28;19925;-80
2023/06/06 16:00:00;;;;;;;;;;;;;;;;;;5037136;28;20379;-82
2023/06/06 16:02:27;;;;;;;;;;;;;;;;;;5043535;28;19928;-82
2023/06/06 16:04:54;;;;;;;;;;;;;;;;;;5044555;28;20023;-83
2023/06/06 16:07:21;;;;;;;;;;;;;;;;;;5047306;28;20011;-83
2023/06/06 16:09:48;;;;;;;;;;;;;;;;;;5045051;28;19968;-78
2023/06/06 16:12:15;;;;;;;;;;;;;;;;;;5041085;28;20011;-80
2023/06/06 16:14:42;;;;;;;;;;;;;;;;;;5040371;28;19979;-82
2023/06/06 16:17:10;;;;;;;;;;;;;;;;;;5051126;28;19956;-82
2023/06/06 16:19:37;;;;;;;;;;;;;;;;;;5047828;28;19929;-79
2023/06/06 16:22:04;;;;;;;;;;;;;;;;;;5051977;28;20036;-82
2023/06/06 16:24:30;;;;;;;;;;;;;;;;;;5049901;28;19968;-80
2023/06/06 16:26:57;;;;;;;;;;;;;;;;;;5031570;28;19969;-82
2023/06/06 16:29:24;;;;;;;;;;;;;;;;;;5040004;28;20031;-85
2023/06/06 16:31:51;;;;;;;;;;;;;;;;;;5040406;28;20024;-81
2023/06/06 16:34:18;;;;;;;;;;;;;;;;;;5048196;28;20008;-72
2023/06/06 16:36:45;;;;;;;;;;;;;;;;;;5036764;28;19929;-77
2023/06/06 16:39:13;;;;;;;;;;;;;;;;;;5042492;28;20020;-77
2023/06/06 16:41:40;;;;;;;;;;;;;;;;;;5040429;28;19925;-75
2023/06/06 16:44:10;;;;;;;;;;;;;;;;;;5037782;28;19929;-75
2023/06/06 16:46:37;;;;;;;;;;;;;;;;;;5041841;28;19982;-76